sensor_id;sensor_type;location;lat;lon;timestamp;temperature;humidity
9083;DHT22;4577;48.704;9.000;2023-07-20T00:01:59;19.40;55.30
9083;DHT22;4577;48.704;9.000;2023-07-20T00:04:24;19.70;56.40
9083;DHT22;4577;48.704;9.000;2023-07-20T00:06:50;19.40;54.80
9083;DHT22;4577;48.704;9.000;2023-07-20T00:09:16;19.30;54.70
9083;DHT22;4577;48.704;9.000;2023-07-20T00:11:49;19.30;54.50
9083;DHT22;4577;48.704;9.000;2023-07-20T00:14:16;19.20;55.30
9083;DHT22;4577;48.704;9.000;2023-07-20T00:16:42;19.10;54.50
9083;DHT22;4577;48.704;9.000;2023-07-20T00:21:34;19.10;54.20
9083;DHT22;4577;48.704;9.000;2023-07-20T00:24:00;19.20;54.50
9083;DHT22;4577;48.704;9.000;2023-07-20T00:26:25;19.10;53.90
9083;DHT22;4577;48.704;9.000;2023-07-20T00:28:51;19.10;53.80
9083;DHT22;4577;48.704;9.000;2023-07-20T00:31:17;19.00;53.60
9083;DHT22;4577;48.704;9.000;2023-07-20T00:33:43;19.00;54.00
9083;DHT22;4577;48.704;9.000;2023-07-20T00:36:08;19.90;54.80
9083;DHT22;4577;48.704;9.000;2023-07-20T00:38:34;18.90;54.40
9083;DHT22;4577;48.704;9.000;2023-07-20T00:41:00;18.90;54.70
9083;DHT22;4577;48.704;9.000;2023-07-20T00:43:25;18.90;54.50
9083;DHT22;4577;48.704;9.000;2023-07-20T00:45:51;18.90;54.40
9083;DHT22;4577;48.704;9.000;2023-07-20T00:48:17;19.00;54.70
9083;DHT22;4577;48.704;9.000;2023-07-20T00:50:43;19.10;54.40
9083;DHT22;4577;48.704;9.000;2023-07-20T00:53:09;19.10;54.10
9083;DHT22;4577;48.704;9.000;2023-07-20T00:55:35;19.10;53.60
9083;DHT22;4577;48.704;9.000;2023-07-20T00:58:01;19.00;53.50
9083;DHT22;4577;48.704;9.000;2023-07-20T01:00:27;19.00;53.60
9083;DHT22;4577;48.704;9.000;2023-07-20T01:02:53;19.00;54.00
9083;DHT22;4577;48.704;9.000;2023-07-20T01:05:19;18.80;54.30
9083;DHT22;4577;48.704;9.000;2023-07-20T01:12:43;18.30;56.00
9083;DHT22;4577;48.704;9.000;2023-07-20T01:15:11;18.30;56.00
9083;DHT22;4577;48.704;9.000;2023-07-20T01:17:37;18.40;55.80
9083;DHT22;4577;48.704;9.000;2023-07-20T01:20:03;18.50;55.60
9083;DHT22;4577;48.704;9.000;2023-07-20T01:25:34;18.40;56.00
9083;DHT22;4577;48.704;9.000;2023-07-20T01:28:25;18.30;55.90
9083;DHT22;4577;48.704;9.000;2023-07-20T01:31:25;18.30;55.20
9083;DHT22;4577;48.704;9.000;2023-07-20T01:33:55;18.20;55.20
9083;DHT22;4577;48.704;9.000;2023-07-20T01:36:22;18.20;54.70
9083;DHT22;4577;48.704;9.000;2023-07-20T01:38:50;18.20;54.20
9083;DHT22;4577;48.704;9.000;2023-07-20T01:41:16;18.10;54.30
9083;DHT22;4577;48.704;9.000;2023-07-20T01:43:43;18.20;54.50
9083;DHT22;4577;48.704;9.000;2023-07-20T01:46:09;18.20;54.60
9083;DHT22;4577;48.704;9.000;2023-07-20T01:48:35;18.10;54.70
9083;DHT22;4577;48.704;9.000;2023-07-20T01:51:00;18.10;54.70
9083;DHT22;4577;48.704;9.000;2023-07-20T01:53:26;19.20;55.90
9083;DHT22;4577;48.704;9.000;2023-07-20T01:55:54;18.00;55.10
9083;DHT22;4577;48.704;9.000;2023-07-20T01:58:20;18.10;55.20
9083;DHT22;4577;48.704;9.000;2023-07-20T02:00:46;18.00;55.10
9083;DHT22;4577;48.704;9.000;2023-07-20T02:03:12;18.10;55.20
9083;DHT22;4577;48.704;9.000;2023-07-20T02:05:38;18.10;55.20
9083;DHT22;4577;48.704;9.000;2023-07-20T02:08:03;18.00;55.30
9083;DHT22;4577;48.704;9.000;2023-07-20T02:10:29;17.50;56.00
9083;DHT22;4577;48.704;9.000;2023-07-20T02:12:55;17.80;55.80
9083;DHT22;4577;48.704;9.000;2023-07-20T02:15:21;17.70;55.90
9083;DHT22;4577;48.704;9.000;2023-07-20T02:17:47;17.80;56.00
9083;DHT22;4577;48.704;9.000;2023-07-20T02:20:13;17.80;56.00
9083;DHT22;4577;48.704;9.000;2023-07-20T02:22:39;17.70;56.10
9083;DHT22;4577;48.704;9.000;2023-07-20T02:25:06;17.70;56.10
9083;DHT22;4577;48.704;9.000;2023-07-20T02:27:33;17.70;56.10
9083;DHT22;4577;48.704;9.000;2023-07-20T02:29:59;17.70;56.20
9083;DHT22;4577;48.704;9.000;2023-07-20T02:32:24;17.80;56.10
9083;DHT22;4577;48.704;9.000;2023-07-20T02:34:50;17.90;56.00
9083;DHT22;4577;48.704;9.000;2023-07-20T02:37:16;17.90;55.80
9083;DHT22;4577;48.704;9.000;2023-07-20T02:39:42;17.90;55.90
9083;DHT22;4577;48.704;9.000;2023-07-20T02:42:08;17.80;55.90
9083;DHT22;4577;48.704;9.000;2023-07-20T02:44:33;17.80;56.10
9083;DHT22;4577;48.704;9.000;2023-07-20T02:46:59;17.70;56.40
9083;DHT22;4577;48.704;9.000;2023-07-20T02:49:25;17.70;56.50
9083;DHT22;4577;48.704;9.000;2023-07-20T02:51:51;17.70;56.70
9083;DHT22;4577;48.704;9.000;2023-07-20T02:54:16;17.60;57.00
9083;DHT22;4577;48.704;9.000;2023-07-20T02:56:42;17.70;56.90
9083;DHT22;4577;48.704;9.000;2023-07-20T02:59:08;17.60;56.90
9083;DHT22;4577;48.704;9.000;2023-07-20T03:01:34;17.60;57.10
9083;DHT22;4577;48.704;9.000;2023-07-20T03:03:59;17.60;57.20
9083;DHT22;4577;48.704;9.000;2023-07-20T03:06:25;17.60;57.20
9083;DHT22;4577;48.704;9.000;2023-07-20T03:08:51;17.70;57.50
9083;DHT22;4577;48.704;9.000;2023-07-20T03:11:19;17.70;57.60
9083;DHT22;4577;48.704;9.000;2023-07-20T03:13:46;17.60;57.70
9083;DHT22;4577;48.704;9.000;2023-07-20T03:16:14;17.30;58.30
9083;DHT22;4577;48.704;9.000;2023-07-20T03:18:41;17.20;58.80
9083;DHT22;4577;48.704;9.000;2023-07-20T03:21:08;17.20;59.00
9083;DHT22;4577;48.704;9.000;2023-07-20T03:23:37;17.20;59.00
9083;DHT22;4577;48.704;9.000;2023-07-20T03:26:03;17.10;59.40
9083;DHT22;4577;48.704;9.000;2023-07-20T03:28:28;17.10;59.40
9083;DHT22;4577;48.704;9.000;2023-07-20T03:30:55;17.10;59.60
9083;DHT22;4577;48.704;9.000;2023-07-20T03:33:28;17.10;59.50
9083;DHT22;4577;48.704;9.000;2023-07-20T03:35:55;17.10;59.70
9083;DHT22;4577;48.704;9.000;2023-07-20T03:38:21;16.80;60.10
9083;DHT22;4577;48.704;9.000;2023-07-20T03:40:54;16.90;60.80
9083;DHT22;4577;48.704;9.000;2023-07-20T03:43:22;17.00;60.20
9083;DHT22;4577;48.704;9.000;2023-07-20T03:45:48;17.00;60.30
9083;DHT22;4577;48.704;9.000;2023-07-20T03:48:16;17.00;60.40
9083;DHT22;4577;48.704;9.000;2023-07-20T03:50:43;17.00;60.40
9083;DHT22;4577;48.704;9.000;2023-07-20T03:53:09;17.10;60.70
9083;DHT22;4577;48.704;9.000;2023-07-20T03:55:35;17.10;60.30
9083;DHT22;4577;48.704;9.000;2023-07-20T03:58:01;17.20;60.20
9083;DHT22;4577;48.704;9.000;2023-07-20T04:00:27;17.30;60.10
9083;DHT22;4577;48.704;9.000;2023-07-20T04:02:53;17.40;60.30
9083;DHT22;4577;48.704;9.000;2023-07-20T04:05:19;17.50;60.00
9083;DHT22;4577;48.704;9.000;2023-07-20T04:07:45;17.70;60.40
9083;DHT22;4577;48.704;9.000;2023-07-20T04:10:11;17.80;60.00
9083;DHT22;4577;48.704;9.000;2023-07-20T04:12:37;17.70;59.60
9083;DHT22;4577;48.704;9.000;2023-07-20T04:15:02;17.80;59.70
9083;DHT22;4577;48.704;9.000;2023-07-20T04:17:29;17.80;60.20
9083;DHT22;4577;48.704;9.000;2023-07-20T04:19:55;17.90;60.00
9083;DHT22;4577;48.704;9.000;2023-07-20T04:22:20;17.90;60.60
9083;DHT22;4577;48.704;9.000;2023-07-20T04:24:47;18.00;60.40
9083;DHT22;4577;48.704;9.000;2023-07-20T04:27:12;18.10;59.90
9083;DHT22;4577;48.704;9.000;2023-07-20T04:29:38;18.10;59.70
9083;DHT22;4577;48.704;9.000;2023-07-20T04:32:04;18.20;59.20
9083;DHT22;4577;48.704;9.000;2023-07-20T04:34:30;18.00;58.90
9083;DHT22;4577;48.704;9.000;2023-07-20T04:36:56;18.10;59.60
9083;DHT22;4577;48.704;9.000;2023-07-20T04:39:21;18.10;59.40
9083;DHT22;4577;48.704;9.000;2023-07-20T04:41:47;17.70;59.60
9083;DHT22;4577;48.704;9.000;2023-07-20T04:44:13;17.90;59.40
9083;DHT22;4577;48.704;9.000;2023-07-20T04:46:39;17.90;60.00
9083;DHT22;4577;48.704;9.000;2023-07-20T04:49:05;18.00;60.10
9083;DHT22;4577;48.704;9.000;2023-07-20T04:51:31;18.20;60.40
9083;DHT22;4577;48.704;9.000;2023-07-20T04:53:58;18.10;59.70
9083;DHT22;4577;48.704;9.000;2023-07-20T04:56:24;18.10;59.80
9083;DHT22;4577;48.704;9.000;2023-07-20T04:58:50;18.00;60.30
9083;DHT22;4577;48.704;9.000;2023-07-20T05:01:16;18.00;59.90
9083;DHT22;4577;48.704;9.000;2023-07-20T05:03:41;17.90;59.80
9083;DHT22;4577;48.704;9.000;2023-07-20T05:06:07;18.00;60.20
9083;DHT22;4577;48.704;9.000;2023-07-20T05:08:33;17.80;60.80
9083;DHT22;4577;48.704;9.000;2023-07-20T05:11:02;17.80;60.30
9083;DHT22;4577;48.704;9.000;2023-07-20T05:13:27;17.60;60.50
9083;DHT22;4577;48.704;9.000;2023-07-20T05:15:53;17.70;60.60
9083;DHT22;4577;48.704;9.000;2023-07-20T05:18:19;17.60;61.10
9083;DHT22;4577;48.704;9.000;2023-07-20T05:20:47;17.60;61.20
9083;DHT22;4577;48.704;9.000;2023-07-20T05:23:13;17.70;61.00
9083;DHT22;4577;48.704;9.000;2023-07-20T05:25:39;17.70;61.10
9083;DHT22;4577;48.704;9.000;2023-07-20T05:28:05;17.70;61.30
9083;DHT22;4577;48.704;9.000;2023-07-20T05:30:31;17.50;61.40
9083;DHT22;4577;48.704;9.000;2023-07-20T05:32:57;17.60;61.60
9083;DHT22;4577;48.704;9.000;2023-07-20T05:35:22;17.60;61.80
9083;DHT22;4577;48.704;9.000;2023-07-20T05:37:48;17.60;61.80
9083;DHT22;4577;48.704;9.000;2023-07-20T05:40:14;17.70;61.80
9083;DHT22;4577;48.704;9.000;2023-07-20T05:42:47;17.80;61.90
9083;DHT22;4577;48.704;9.000;2023-07-20T05:45:14;17.70;61.70
9083;DHT22;4577;48.704;9.000;2023-07-20T05:47:41;17.60;62.40
9083;DHT22;4577;48.704;9.000;2023-07-20T05:50:07;17.50;62.80
9083;DHT22;4577;48.704;9.000;2023-07-20T05:52:33;17.50;62.80
9083;DHT22;4577;48.704;9.000;2023-07-20T05:54:59;17.50;63.00
9083;DHT22;4577;48.704;9.000;2023-07-20T05:57:24;17.50;63.50
9083;DHT22;4577;48.704;9.000;2023-07-20T05:59:50;17.50;63.50
9083;DHT22;4577;48.704;9.000;2023-07-20T06:02:16;17.60;63.10
9083;DHT22;4577;48.704;9.000;2023-07-20T06:04:42;17.60;63.60
9083;DHT22;4577;48.704;9.000;2023-07-20T06:07:07;17.60;63.30
9083;DHT22;4577;48.704;9.000;2023-07-20T06:09:33;17.80;63.40
9083;DHT22;4577;48.704;9.000;2023-07-20T06:11:59;17.80;63.70
9083;DHT22;4577;48.704;9.000;2023-07-20T06:14:25;18.10;64.50
9083;DHT22;4577;48.704;9.000;2023-07-20T06:16:50;17.70;62.80
9083;DHT22;4577;48.704;9.000;2023-07-20T06:19:16;17.70;63.00
9083;DHT22;4577;48.704;9.000;2023-07-20T06:21:42;17.80;63.10
9083;DHT22;4577;48.704;9.000;2023-07-20T06:24:08;18.00;63.00
9083;DHT22;4577;48.704;9.000;2023-07-20T06:26:34;17.90;62.30
9083;DHT22;4577;48.704;9.000;2023-07-20T06:29:05;17.90;63.10
9083;DHT22;4577;48.704;9.000;2023-07-20T06:31:32;18.00;62.50
9083;DHT22;4577;48.704;9.000;2023-07-20T06:33:58;18.10;62.30
9083;DHT22;4577;48.704;9.000;2023-07-20T06:36:24;17.90;62.50
9083;DHT22;4577;48.704;9.000;2023-07-20T06:38:51;17.90;63.00
9083;DHT22;4577;48.704;9.000;2023-07-20T06:41:17;18.00;63.30
9083;DHT22;4577;48.704;9.000;2023-07-20T06:43:43;18.00;63.20
9083;DHT22;4577;48.704;9.000;2023-07-20T06:46:09;18.20;63.30
9083;DHT22;4577;48.704;9.000;2023-07-20T06:48:34;18.20;62.60
9083;DHT22;4577;48.704;9.000;2023-07-20T06:51:00;18.30;62.40
9083;DHT22;4577;48.704;9.000;2023-07-20T06:53:26;18.10;62.50
9083;DHT22;4577;48.704;9.000;2023-07-20T06:55:51;18.20;62.70
9083;DHT22;4577;48.704;9.000;2023-07-20T06:58:17;18.20;62.70
9083;DHT22;4577;48.704;9.000;2023-07-20T07:00:43;18.40;62.80
9083;DHT22;4577;48.704;9.000;2023-07-20T07:03:10;18.40;62.60
9083;DHT22;4577;48.704;9.000;2023-07-20T07:05:36;18.30;62.30
9083;DHT22;4577;48.704;9.000;2023-07-20T07:08:06;18.40;62.30
9083;DHT22;4577;48.704;9.000;2023-07-20T07:10:32;18.30;62.60
9083;DHT22;4577;48.704;9.000;2023-07-20T07:12:58;18.20;62.50
9083;DHT22;4577;48.704;9.000;2023-07-20T07:15:23;18.10;62.80
9083;DHT22;4577;48.704;9.000;2023-07-20T07:17:49;18.10;63.10
9083;DHT22;4577;48.704;9.000;2023-07-20T07:20:16;18.20;63.50
9083;DHT22;4577;48.704;9.000;2023-07-20T07:22:42;18.30;62.80
9083;DHT22;4577;48.704;9.000;2023-07-20T07:25:09;18.40;63.60
9083;DHT22;4577;48.704;9.000;2023-07-20T07:27:35;18.40;63.00
9083;DHT22;4577;48.704;9.000;2023-07-20T07:30:02;18.20;63.80
9083;DHT22;4577;48.704;9.000;2023-07-20T07:32:28;18.20;63.60
9083;DHT22;4577;48.704;9.000;2023-07-20T07:34:53;18.30;63.80
9083;DHT22;4577;48.704;9.000;2023-07-20T07:37:19;18.30;63.70
9083;DHT22;4577;48.704;9.000;2023-07-20T07:39:45;18.40;64.60
9083;DHT22;4577;48.704;9.000;2023-07-20T07:42:11;18.50;63.60
9083;DHT22;4577;48.704;9.000;2023-07-20T07:44:38;18.60;63.70
9083;DHT22;4577;48.704;9.000;2023-07-20T07:47:03;18.60;62.90
9083;DHT22;4577;48.704;9.000;2023-07-20T07:49:29;18.60;63.10
9083;DHT22;4577;48.704;9.000;2023-07-20T07:51:55;18.60;63.20
9083;DHT22;4577;48.704;9.000;2023-07-20T07:54:20;18.70;62.60
9083;DHT22;4577;48.704;9.000;2023-07-20T07:56:46;18.90;62.80
9083;DHT22;4577;48.704;9.000;2023-07-20T07:59:12;19.10;61.90
9083;DHT22;4577;48.704;9.000;2023-07-20T08:01:38;18.90;61.40
9083;DHT22;4577;48.704;9.000;2023-07-20T08:04:03;19.00;62.80
9083;DHT22;4577;48.704;9.000;2023-07-20T08:06:29;19.20;61.60
9083;DHT22;4577;48.704;9.000;2023-07-20T08:08:55;19.40;60.00
9083;DHT22;4577;48.704;9.000;2023-07-20T08:11:20;19.40;59.50
9083;DHT22;4577;48.704;9.000;2023-07-20T08:13:46;19.20;59.10
9083;DHT22;4577;48.704;9.000;2023-07-20T08:16:12;19.60;59.90
9083;DHT22;4577;48.704;9.000;2023-07-20T08:21:03;19.30;58.30
9083;DHT22;4577;48.704;9.000;2023-07-20T08:23:29;19.30;58.50
9083;DHT22;4577;48.704;9.000;2023-07-20T08:25:55;19.40;59.10
9083;DHT22;4577;48.704;9.000;2023-07-20T08:28:20;19.50;58.80
9083;DHT22;4577;48.704;9.000;2023-07-20T08:30:47;19.50;58.10
9083;DHT22;4577;48.704;9.000;2023-07-20T08:33:14;19.40;58.50
9083;DHT22;4577;48.704;9.000;2023-07-20T08:35:40;19.40;58.60
9083;DHT22;4577;48.704;9.000;2023-07-20T08:38:06;19.40;58.90
9083;DHT22;4577;48.704;9.000;2023-07-20T08:40:34;19.40;57.80
9083;DHT22;4577;48.704;9.000;2023-07-20T08:43:00;19.30;59.10
9083;DHT22;4577;48.704;9.000;2023-07-20T08:45:27;19.40;58.90
9083;DHT22;4577;48.704;9.000;2023-07-20T08:47:56;19.50;59.00
9083;DHT22;4577;48.704;9.000;2023-07-20T08:50:28;19.70;58.10
9083;DHT22;4577;48.704;9.000;2023-07-20T08:52:57;19.80;58.40
9083;DHT22;4577;48.704;9.000;2023-07-20T08:55:24;19.80;55.80
9083;DHT22;4577;48.704;9.000;2023-07-20T08:57:54;19.80;54.80
9083;DHT22;4577;48.704;9.000;2023-07-20T09:00:21;19.80;55.00
9083;DHT22;4577;48.704;9.000;2023-07-20T09:02:53;19.90;54.80
9083;DHT22;4577;48.704;9.000;2023-07-20T09:05:23;20.10;55.00
9083;DHT22;4577;48.704;9.000;2023-07-20T09:07:49;20.30;53.10
9083;DHT22;4577;48.704;9.000;2023-07-20T09:10:15;20.30;53.30
9083;DHT22;4577;48.704;9.000;2023-07-20T09:12:43;20.30;51.20
9083;DHT22;4577;48.704;9.000;2023-07-20T09:15:11;20.20;51.10
9083;DHT22;4577;48.704;9.000;2023-07-20T09:17:37;20.10;51.60
9083;DHT22;4577;48.704;9.000;2023-07-20T09:20:07;19.90;52.10
9083;DHT22;4577;48.704;9.000;2023-07-20T09:22:39;19.90;51.40
9083;DHT22;4577;48.704;9.000;2023-07-20T09:25:12;19.90;51.40
9083;DHT22;4577;48.704;9.000;2023-07-20T09:27:40;20.00;51.90
9083;DHT22;4577;48.704;9.000;2023-07-20T09:30:07;20.10;51.90
9083;DHT22;4577;48.704;9.000;2023-07-20T09:32:54;20.10;51.90
9083;DHT22;4577;48.704;9.000;2023-07-20T09:35:21;20.00;51.50
9083;DHT22;4577;48.704;9.000;2023-07-20T09:37:51;20.10;51.10
9083;DHT22;4577;48.704;9.000;2023-07-20T09:40:20;20.30;51.10
9083;DHT22;4577;48.704;9.000;2023-07-20T09:42:47;20.40;51.60
9083;DHT22;4577;48.704;9.000;2023-07-20T09:45:13;20.50;50.40
9083;DHT22;4577;48.704;9.000;2023-07-20T09:47:39;20.70;49.50
9083;DHT22;4577;48.704;9.000;2023-07-20T09:50:07;20.80;48.20
9083;DHT22;4577;48.704;9.000;2023-07-20T09:52:40;20.60;48.80
9083;DHT22;4577;48.704;9.000;2023-07-20T09:55:07;20.80;47.80
9083;DHT22;4577;48.704;9.000;2023-07-20T09:57:34;20.90;47.00
9083;DHT22;4577;48.704;9.000;2023-07-20T10:00:04;21.00;47.80
9083;DHT22;4577;48.704;9.000;2023-07-20T10:02:44;20.70;49.00
9083;DHT22;4577;48.704;9.000;2023-07-20T10:05:14;20.70;49.70
9083;DHT22;4577;48.704;9.000;2023-07-20T10:07:47;20.50;48.90
9083;DHT22;4577;48.704;9.000;2023-07-20T10:10:18;20.40;49.50
9083;DHT22;4577;48.704;9.000;2023-07-20T10:12:47;20.50;49.40
9083;DHT22;4577;48.704;9.000;2023-07-20T10:18:14;20.60;48.30
9083;DHT22;4577;48.704;9.000;2023-07-20T10:20:41;20.70;47.90
9083;DHT22;4577;48.704;9.000;2023-07-20T10:23:08;20.80;48.20
9083;DHT22;4577;48.704;9.000;2023-07-20T10:25:34;23.80;49.50
9083;DHT22;4577;48.704;9.000;2023-07-20T10:28:07;21.00;47.60
9083;DHT22;4577;48.704;9.000;2023-07-20T10:30:35;21.10;47.00
9083;DHT22;4577;48.704;9.000;2023-07-20T10:33:05;21.30;46.90
9083;DHT22;4577;48.704;9.000;2023-07-20T10:35:50;21.00;46.80
9083;DHT22;4577;48.704;9.000;2023-07-20T10:38:16;21.10;47.30
9083;DHT22;4577;48.704;9.000;2023-07-20T10:40:42;21.40;47.10
9083;DHT22;4577;48.704;9.000;2023-07-20T10:43:09;21.40;47.00
9083;DHT22;4577;48.704;9.000;2023-07-20T10:45:56;21.20;44.80
9083;DHT22;4577;48.704;9.000;2023-07-20T10:48:22;21.10;46.00
9083;DHT22;4577;48.704;9.000;2023-07-20T10:51:12;21.10;45.60
9083;DHT22;4577;48.704;9.000;2023-07-20T10:53:40;21.00;44.70
9083;DHT22;4577;48.704;9.000;2023-07-20T10:56:15;21.00;45.00
9083;DHT22;4577;48.704;9.000;2023-07-20T10:58:41;21.10;44.20
9083;DHT22;4577;48.704;9.000;2023-07-20T11:01:08;21.30;42.80
9083;DHT22;4577;48.704;9.000;2023-07-20T11:03:37;21.40;42.60
9083;DHT22;4577;48.704;9.000;2023-07-20T11:11:23;21.40;43.60
9083;DHT22;4577;48.704;9.000;2023-07-20T11:16:40;21.60;42.80
9083;DHT22;4577;48.704;9.000;2023-07-20T11:19:23;21.30;42.50
9083;DHT22;4577;48.704;9.000;2023-07-20T11:21:54;21.50;43.40
9083;DHT22;4577;48.704;9.000;2023-07-20T11:24:20;21.70;43.60
9083;DHT22;4577;48.704;9.000;2023-07-20T11:26:47;22.00;41.50
9083;DHT22;4577;48.704;9.000;2023-07-20T11:29:15;21.90;42.00
9083;DHT22;4577;48.704;9.000;2023-07-20T11:31:42;21.90;41.80
9083;DHT22;4577;48.704;9.000;2023-07-20T11:34:14;22.00;41.50
9083;DHT22;4577;48.704;9.000;2023-07-20T11:36:47;22.00;41.50
9083;DHT22;4577;48.704;9.000;2023-07-20T11:39:15;22.10;41.70
9083;DHT22;4577;48.704;9.000;2023-07-20T11:41:47;22.10;40.70
9083;DHT22;4577;48.704;9.000;2023-07-20T11:44:13;22.10;40.90
9083;DHT22;4577;48.704;9.000;2023-07-20T11:46:42;22.00;40.40
9083;DHT22;4577;48.704;9.000;2023-07-20T11:49:08;21.90;40.10
9083;DHT22;4577;48.704;9.000;2023-07-20T11:51:34;21.80;40.20
9083;DHT22;4577;48.704;9.000;2023-07-20T11:54:01;21.80;39.70
9083;DHT22;4577;48.704;9.000;2023-07-20T11:56:27;22.00;40.10
9083;DHT22;4577;48.704;9.000;2023-07-20T11:58:58;22.20;40.00
9083;DHT22;4577;48.704;9.000;2023-07-20T12:01:29;22.20;40.10
9083;DHT22;4577;48.704;9.000;2023-07-20T12:03:59;22.30;40.50
9083;DHT22;4577;48.704;9.000;2023-07-20T12:06:26;22.40;40.10
9083;DHT22;4577;48.704;9.000;2023-07-20T12:08:55;22.40;39.90
9083;DHT22;4577;48.704;9.000;2023-07-20T12:11:34;22.30;40.50
9083;DHT22;4577;48.704;9.000;2023-07-20T12:14:01;22.40;40.40
9083;DHT22;4577;48.704;9.000;2023-07-20T12:16:28;22.10;39.60
9083;DHT22;4577;48.704;9.000;2023-07-20T12:19:03;22.10;40.20
9083;DHT22;4577;48.704;9.000;2023-07-20T12:21:30;22.10;40.10
9083;DHT22;4577;48.704;9.000;2023-07-20T12:23:57;22.20;39.90
9083;DHT22;4577;48.704;9.000;2023-07-20T12:26:23;22.20;39.70
9083;DHT22;4577;48.704;9.000;2023-07-20T12:28:51;22.40;40.00
9083;DHT22;4577;48.704;9.000;2023-07-20T12:31:17;22.70;39.80
9083;DHT22;4577;48.704;9.000;2023-07-20T12:36:15;22.60;39.20
9083;DHT22;4577;48.704;9.000;2023-07-20T12:38:41;22.70;40.20
9083;DHT22;4577;48.704;9.000;2023-07-20T12:41:09;22.50;40.10
9083;DHT22;4577;48.704;9.000;2023-07-20T12:43:35;22.60;39.60
9083;DHT22;4577;48.704;9.000;2023-07-20T12:46:01;22.70;39.90
9083;DHT22;4577;48.704;9.000;2023-07-20T12:48:27;22.70;40.70
9083;DHT22;4577;48.704;9.000;2023-07-20T12:50:53;22.60;39.00
9083;DHT22;4577;48.704;9.000;2023-07-20T12:53:18;22.50;39.60
9083;DHT22;4577;48.704;9.000;2023-07-20T12:55:44;22.70;41.30
9083;DHT22;4577;48.704;9.000;2023-07-20T13:03:02;22.70;37.80
9083;DHT22;4577;48.704;9.000;2023-07-20T13:05:32;22.60;38.70
9083;DHT22;4577;48.704;9.000;2023-07-20T13:07:58;22.90;38.40
9083;DHT22;4577;48.704;9.000;2023-07-20T13:15:18;22.60;36.70
9083;DHT22;4577;48.704;9.000;2023-07-20T13:17:44;22.70;37.50
9083;DHT22;4577;48.704;9.000;2023-07-20T13:20:11;22.80;37.90
9083;DHT22;4577;48.704;9.000;2023-07-20T13:22:38;23.00;37.90
9083;DHT22;4577;48.704;9.000;2023-07-20T13:25:04;23.00;36.10
9083;DHT22;4577;48.704;9.000;2023-07-20T13:27:30;23.30;38.10
9083;DHT22;4577;48.704;9.000;2023-07-20T13:29:57;23.50;37.40
9083;DHT22;4577;48.704;9.000;2023-07-20T13:32:23;23.50;38.00
9083;DHT22;4577;48.704;9.000;2023-07-20T13:34:51;23.20;35.20
9083;DHT22;4577;48.704;9.000;2023-07-20T13:39:43;23.30;35.60
9083;DHT22;4577;48.704;9.000;2023-07-20T13:47:04;23.40;35.70
9083;DHT22;4577;48.704;9.000;2023-07-20T13:54:25;23.20;35.60
9083;DHT22;4577;48.704;9.000;2023-07-20T13:56:51;23.30;35.60
9083;DHT22;4577;48.704;9.000;2023-07-20T13:59:18;23.30;34.50
9083;DHT22;4577;48.704;9.000;2023-07-20T14:01:43;23.20;36.80
9083;DHT22;4577;48.704;9.000;2023-07-20T14:04:09;23.30;39.50
9083;DHT22;4577;48.704;9.000;2023-07-20T14:06:35;23.30;34.40
9083;DHT22;4577;48.704;9.000;2023-07-20T14:09:02;23.50;36.70
9083;DHT22;4577;48.704;9.000;2023-07-20T14:11:29;24.70;35.40
9083;DHT22;4577;48.704;9.000;2023-07-20T14:13:54;23.80;38.60
9083;DHT22;4577;48.704;9.000;2023-07-20T14:16:21;23.40;34.80
9083;DHT22;4577;48.704;9.000;2023-07-20T14:18:48;23.30;35.90
9083;DHT22;4577;48.704;9.000;2023-07-20T14:21:18;23.40;36.20
9083;DHT22;4577;48.704;9.000;2023-07-20T14:23:49;23.50;37.60
9083;DHT22;4577;48.704;9.000;2023-07-20T14:26:18;23.60;35.40
9083;DHT22;4577;48.704;9.000;2023-07-20T14:31:10;23.90;34.30
9083;DHT22;4577;48.704;9.000;2023-07-20T14:36:03;24.10;34.50
9083;DHT22;4577;48.704;9.000;2023-07-20T14:38:33;24.30;33.80
9083;DHT22;4577;48.704;9.000;2023-07-20T14:40:59;24.20;35.40
9083;DHT22;4577;48.704;9.000;2023-07-20T14:45:51;23.80;33.80
9083;DHT22;4577;48.704;9.000;2023-07-20T14:48:16;23.60;34.40
9083;DHT22;4577;48.704;9.000;2023-07-20T14:50:42;23.60;35.60
9083;DHT22;4577;48.704;9.000;2023-07-20T14:53:12;23.80;36.30
9083;DHT22;4577;48.704;9.000;2023-07-20T14:55:37;23.80;35.80
9083;DHT22;4577;48.704;9.000;2023-07-20T14:58:03;23.80;36.00
9083;DHT22;4577;48.704;9.000;2023-07-20T15:00:31;23.70;36.00
9083;DHT22;4577;48.704;9.000;2023-07-20T15:02:57;23.60;36.30
9083;DHT22;4577;48.704;9.000;2023-07-20T15:05:23;23.60;35.50
9083;DHT22;4577;48.704;9.000;2023-07-20T15:07:50;23.70;35.40
9083;DHT22;4577;48.704;9.000;2023-07-20T15:10:16;23.60;36.80
9083;DHT22;4577;48.704;9.000;2023-07-20T15:12:42;23.60;35.80
9083;DHT22;4577;48.704;9.000;2023-07-20T15:15:12;23.90;34.50
9083;DHT22;4577;48.704;9.000;2023-07-20T15:17:39;23.80;34.90
9083;DHT22;4577;48.704;9.000;2023-07-20T15:20:07;24.00;35.50
9083;DHT22;4577;48.704;9.000;2023-07-20T15:22:34;24.40;36.30
9083;DHT22;4577;48.704;9.000;2023-07-20T15:25:02;24.50;34.10
9083;DHT22;4577;48.704;9.000;2023-07-20T15:27:28;24.30;33.90
9083;DHT22;4577;48.704;9.000;2023-07-20T15:29:54;24.10;34.70
9083;DHT22;4577;48.704;9.000;2023-07-20T15:32:20;23.90;35.60
9083;DHT22;4577;48.704;9.000;2023-07-20T15:34:46;22.40;33.10
9083;DHT22;4577;48.704;9.000;2023-07-20T15:37:12;24.00;34.60
9083;DHT22;4577;48.704;9.000;2023-07-20T15:39:38;24.00;35.80
9083;DHT22;4577;48.704;9.000;2023-07-20T15:42:05;23.90;35.00
9083;DHT22;4577;48.704;9.000;2023-07-20T15:46:57;24.20;34.50
9083;DHT22;4577;48.704;9.000;2023-07-20T15:49:23;24.30;35.00
9083;DHT22;4577;48.704;9.000;2023-07-20T15:51:53;24.30;34.30
9083;DHT22;4577;48.704;9.000;2023-07-20T15:54:19;24.30;33.80
9083;DHT22;4577;48.704;9.000;2023-07-20T15:56:44;24.30;34.10
9083;DHT22;4577;48.704;9.000;2023-07-20T15:59:12;24.20;33.50
9083;DHT22;4577;48.704;9.000;2023-07-20T16:01:40;24.00;33.70
9083;DHT22;4577;48.704;9.000;2023-07-20T16:04:08;24.00;33.60
9083;DHT22;4577;48.704;9.000;2023-07-20T16:06:34;23.90;33.40
9083;DHT22;4577;48.704;9.000;2023-07-20T16:09:02;23.80;33.40
9083;DHT22;4577;48.704;9.000;2023-07-20T16:11:30;23.90;34.10
9083;DHT22;4577;48.704;9.000;2023-07-20T16:13:55;24.00;33.90
9083;DHT22;4577;48.704;9.000;2023-07-20T16:16:21;23.80;33.10
9083;DHT22;4577;48.704;9.000;2023-07-20T16:18:50;23.80;33.50
9083;DHT22;4577;48.704;9.000;2023-07-20T16:21:17;23.90;33.70
9083;DHT22;4577;48.704;9.000;2023-07-20T16:23:43;23.80;33.30
9083;DHT22;4577;48.704;9.000;2023-07-20T16:26:09;23.80;33.50
9083;DHT22;4577;48.704;9.000;2023-07-20T16:28:35;23.80;33.90
9083;DHT22;4577;48.704;9.000;2023-07-20T16:31:08;23.90;33.30
9083;DHT22;4577;48.704;9.000;2023-07-20T16:33:33;24.00;33.40
9083;DHT22;4577;48.704;9.000;2023-07-20T16:35:59;24.10;33.20
9083;DHT22;4577;48.704;9.000;2023-07-20T16:38:25;24.10;32.50
9083;DHT22;4577;48.704;9.000;2023-07-20T16:40:55;24.10;32.60
9083;DHT22;4577;48.704;9.000;2023-07-20T16:43:22;24.20;32.70
9083;DHT22;4577;48.704;9.000;2023-07-20T16:45:48;23.90;31.90
9083;DHT22;4577;48.704;9.000;2023-07-20T16:48:16;23.80;32.00
9083;DHT22;4577;48.704;9.000;2023-07-20T16:50:42;23.70;32.00
9083;DHT22;4577;48.704;9.000;2023-07-20T16:53:07;23.70;31.80
9083;DHT22;4577;48.704;9.000;2023-07-20T16:55:33;23.70;32.00
9083;DHT22;4577;48.704;9.000;2023-07-20T16:57:59;23.80;32.20
9083;DHT22;4577;48.704;9.000;2023-07-20T17:00:25;23.80;31.20